createdAt,value
2023-04-17T00:00:37.813Z,21.75
2023-04-17T00:03:05.027Z,29.50
2023-04-17T00:05:32.378Z,20.75
2023-04-17T00:07:59.563Z,25.00
2023-04-17T00:10:26.323Z,23.25
2023-04-17T00:12:53.167Z,21.25
2023-04-17T00:15:21.828Z,19.00
2023-04-17T00:17:48.907Z,18.75
2023-04-17T00:20:16.007Z,24.75
2023-04-17T00:22:42.912Z,20.75
2023-04-17T00:25:11.127Z,23.67
2023-04-17T00:27:38.005Z,23.25
2023-04-17T00:30:06.621Z,20.75
2023-04-17T00:32:34.982Z,26.00
2023-04-17T00:35:02.672Z,25.75
2023-04-17T00:37:29.642Z,21.75
2023-04-17T00:39:56.442Z,26.00
2023-04-17T00:42:23.307Z,21.25
2023-04-17T00:44:50.290Z,24.75
2023-04-17T00:47:17.809Z,35.00
2023-04-17T00:49:46.277Z,21.75
2023-04-17T00:52:18.451Z,25.75
2023-04-17T00:54:45.656Z,22.75
2023-04-17T00:57:12.586Z,21.75
2023-04-17T00:59:39.973Z,30.00
2023-04-17T01:02:06.822Z,27.00
2023-04-17T01:04:33.669Z,138.60
2023-04-17T01:07:02.475Z,65.20
2023-04-17T01:09:29.180Z,26.00
2023-04-17T01:12:15.395Z,23.25
2023-04-17T01:14:42.108Z,24.00
2023-04-17T01:17:08.836Z,21.75
2023-04-17T01:19:35.691Z,26.75
2023-04-17T01:22:03.817Z,25.50
2023-04-17T01:24:32.006Z,25.75
2023-04-17T01:26:58.674Z,59.50
2023-04-17T01:29:25.460Z,63.75
2023-04-17T01:31:52.159Z,59.00
2023-04-17T01:34:18.845Z,49.00
2023-04-17T01:36:45.666Z,57.67
2023-04-17T01:39:12.612Z,80.40
2023-04-17T01:41:40.833Z,57.33
2023-04-17T01:44:07.546Z,20.50
2023-04-17T01:46:34.264Z,52.67
2023-04-17T01:49:00.925Z,39.75
2023-04-17T01:51:27.650Z,21.50
2023-04-17T01:53:54.934Z,32.25
2023-04-17T01:56:21.671Z,39.50
2023-04-17T01:58:49.719Z,20.33
2023-04-17T02:01:16.566Z,21.00
2023-04-17T02:03:43.586Z,34.00
2023-04-17T02:06:10.472Z,33.75
2023-04-17T02:08:37.415Z,27.75
2023-04-17T02:11:04.245Z,20.33
2023-04-17T02:13:31.051Z,14.33
2023-04-17T02:15:59.216Z,21.67
2023-04-17T02:18:25.964Z,26.25
2023-04-17T02:20:52.711Z,17.67
2023-04-17T02:23:19.503Z,22.00
2023-04-17T02:25:46.193Z,24.00
2023-04-17T02:28:12.932Z,24.67
2023-04-17T02:30:39.610Z,21.67
2023-04-17T02:33:07.764Z,24.00
2023-04-17T02:35:34.602Z,20.67
2023-04-17T02:38:01.284Z,17.67
2023-04-17T02:40:28.075Z,20.33
2023-04-17T02:42:54.810Z,20.67
2023-04-17T02:45:21.748Z,58.00
2023-04-17T02:47:48.520Z,56.33
2023-04-17T02:50:16.765Z,19.00
2023-04-17T02:52:43.524Z,62.67
2023-04-17T02:55:10.331Z,31.25
2023-04-17T02:57:37.083Z,25.33
2023-04-17T03:00:04.474Z,21.33
2023-04-17T03:02:31.210Z,24.00
2023-04-17T03:04:58.146Z,35.75
2023-04-17T03:07:26.697Z,54.25
2023-04-17T03:09:53.626Z,22.75
2023-04-17T03:12:20.363Z,38.00
2023-04-17T03:14:49.394Z,40.75
2023-04-17T03:17:16.384Z,43.25
2023-04-17T03:19:43.153Z,31.50
2023-04-17T03:22:11.391Z,40.75
2023-04-17T03:24:41.398Z,36.25
2023-04-17T03:27:08.131Z,45.50
2023-04-17T03:29:35.018Z,54.00
2023-04-17T03:32:01.743Z,60.50
2023-04-17T03:34:28.516Z,60.00
2023-04-17T03:36:55.303Z,34.25
2023-04-17T03:39:22.064Z,71.25
2023-04-17T03:41:50.215Z,57.75
2023-04-17T03:44:16.969Z,22.00
2023-04-17T03:46:43.703Z,27.75
2023-04-17T03:49:10.672Z,58.33
2023-04-17T03:51:37.557Z,56.00
2023-04-17T03:54:04.240Z,63.00
2023-04-17T03:56:31.111Z,36.25
2023-04-17T03:58:59.272Z,76.80
2023-04-17T04:01:26.131Z,66.67
2023-04-17T04:03:53.034Z,22.67
2023-04-17T04:06:19.819Z,21.50
2023-04-17T04:08:46.666Z,24.75
2023-04-17T04:11:13.425Z,89.75
2023-04-17T04:13:40.109Z,85.80
2023-04-17T04:16:08.966Z,21.50
2023-04-17T04:18:36.136Z,35.75
2023-04-17T04:21:02.922Z,93.25
2023-04-17T04:23:29.611Z,89.00
2023-04-17T04:25:56.424Z,86.80
2023-04-17T04:28:23.084Z,324.80
2023-04-17T04:30:49.933Z,87.80
2023-04-17T04:33:18.548Z,90.20
2023-04-17T04:35:45.260Z,77.00
2023-04-17T04:38:11.936Z,92.60
2023-04-17T04:40:38.665Z,873.80
2023-04-17T04:43:05.500Z,255.40
2023-04-17T04:45:32.200Z,884.80
2023-04-17T04:47:59.912Z,492.80
2023-04-17T04:50:28.005Z,576.20
2023-04-17T04:52:54.777Z,903.75
2023-04-17T04:55:21.698Z,2747.25
2023-04-17T04:57:48.411Z,228.20
2023-04-17T05:00:15.825Z,1295.60
2023-04-17T05:02:42.700Z,102.60
2023-04-17T05:05:09.918Z,1084.00
2023-04-17T05:07:38.080Z,64.00
2023-04-17T05:10:05.739Z,339.80
2023-04-17T05:12:32.475Z,31.00
2023-04-17T05:14:59.257Z,607.75
2023-04-17T05:17:26.039Z,28.50
2023-04-17T05:19:52.870Z,97.60
2023-04-17T05:22:19.594Z,78.67
2023-04-17T05:24:47.713Z,72.25
2023-04-17T05:27:14.515Z,52.67
2023-04-17T05:29:41.284Z,34.50
2023-04-17T05:32:08.086Z,105.50
2023-04-17T05:34:35.042Z,577.00
2023-04-17T05:37:01.859Z,90.20
2023-04-17T05:39:28.593Z,96.00
2023-04-17T05:41:56.735Z,112.40
2023-04-17T05:44:23.416Z,74.33
2023-04-17T05:46:50.141Z,3800.60
2023-04-17T05:49:16.930Z,2164.50
2023-04-17T05:51:43.820Z,106.80
2023-04-17T05:54:10.492Z,2539.25
2023-04-17T05:56:37.266Z,114.60
2023-04-17T05:59:05.346Z,2564.50
2023-04-17T06:01:31.959Z,187.40
2023-04-17T06:03:58.947Z,112.80
2023-04-17T06:06:25.965Z,3313.25
2023-04-17T06:08:52.650Z,2854.40
2023-04-17T06:11:19.522Z,2717.60
2023-04-17T06:13:46.304Z,1194.50
2023-04-17T06:16:14.469Z,3231.40
2023-04-17T06:18:41.155Z,2612.80
2023-04-17T06:21:07.885Z,2431.00
2023-04-17T06:23:34.658Z,95.75
2023-04-17T06:26:01.469Z,3713.80
2023-04-17T06:28:28.213Z,2468.40
2023-04-17T06:30:55.020Z,655.80
2023-04-17T06:33:26.041Z,1456.40
2023-04-17T06:35:53.380Z,1202.20
2023-04-17T06:38:20.114Z,2859.40
2023-04-17T06:40:47.064Z,104.60
2023-04-17T06:43:15.784Z,103.25
2023-04-17T06:45:42.540Z,1974.50
2023-04-17T06:48:09.447Z,106.75
2023-04-17T06:50:37.614Z,802.00
2023-04-17T06:53:04.366Z,388.00
2023-04-17T06:55:31.334Z,92.20
2023-04-17T06:57:57.981Z,768.50
2023-04-17T07:00:24.910Z,110.00
2023-04-17T07:02:51.737Z,178.40
2023-04-17T07:05:18.688Z,91.00
2023-04-17T07:07:46.993Z,108.25
2023-04-17T07:10:13.939Z,94.75
2023-04-17T07:12:40.667Z,44.50
2023-04-17T07:15:09.114Z,384.75
2023-04-17T07:17:36.375Z,112.50
2023-04-17T07:20:04.180Z,3608.25
2023-04-17T07:22:31.390Z,3624.75
2023-04-17T07:24:59.801Z,3898.80
2023-04-17T07:27:27.262Z,2749.20
2023-04-17T07:29:54.641Z,2749.00
2023-04-17T07:33:17.536Z,3661.00
2023-04-17T07:35:45.138Z,3806.00
2023-04-17T07:38:12.008Z,3884.50
2023-04-17T07:40:39.896Z,3880.00
2023-04-17T07:43:10.249Z,3582.40
2023-04-17T07:45:39.742Z,3866.75
2023-04-17T07:48:08.737Z,3884.50
2023-04-17T07:50:37.844Z,90.40
2023-04-17T07:53:05.480Z,3866.50
2023-04-17T07:55:33.087Z,3927.40
2023-04-17T07:58:00.797Z,3887.60
2023-04-17T08:00:30.541Z,3856.40
2023-04-17T08:02:57.931Z,3902.00
2023-04-17T08:05:26.107Z,3898.25
2023-04-17T08:07:55.348Z,3897.50
2023-04-17T08:10:22.602Z,3886.75
2023-04-17T08:12:51.669Z,3891.25
2023-04-17T08:15:20.194Z,3877.75
2023-04-17T08:17:47.589Z,3899.75
2023-04-17T08:20:15.624Z,3868.40
2023-04-17T08:22:44.579Z,3871.50
2023-04-17T08:25:14.125Z,3826.20
2023-04-17T08:27:44.310Z,3846.75
2023-04-17T08:30:14.464Z,3812.60
2023-04-17T08:32:46.288Z,3873.25
2023-04-17T08:35:14.774Z,3836.60
2023-04-17T08:37:44.438Z,3921.80
2023-04-17T08:40:14.054Z,3905.60
2023-04-17T08:42:42.942Z,3884.00
2023-04-17T08:45:12.185Z,3906.50
2023-04-17T08:47:40.351Z,3887.60
2023-04-17T08:50:09.835Z,3880.40
2023-04-17T08:52:40.127Z,3843.60
2023-04-17T08:55:09.465Z,3889.40
2023-04-17T08:57:54.597Z,3887.60
2023-04-17T09:00:25.969Z,3856.00
2023-04-17T09:02:55.380Z,3860.00
2023-04-17T09:05:24.144Z,3859.40
2023-04-17T09:08:09.623Z,3866.75
2023-04-17T09:10:37.634Z,3854.20
2023-04-17T09:13:07.482Z,3889.40
2023-04-17T09:15:38.054Z,3843.60
2023-04-17T09:18:06.269Z,3856.00
2023-04-17T09:20:48.761Z,3830.00
2023-04-17T09:23:16.320Z,3844.50
2023-04-17T09:25:44.142Z,3844.50
2023-04-17T09:28:14.912Z,3834.60
2023-04-17T09:30:44.031Z,3873.20
2023-04-17T09:33:11.871Z,3830.00
2023-04-17T09:35:41.775Z,3830.00
2023-04-17T09:38:10.194Z,3821.00
2023-04-17T09:40:40.264Z,3858.00
2023-04-17T09:43:10.655Z,105.50
2023-04-17T09:45:41.121Z,129.00
2023-04-17T09:48:10.429Z,2184.20
2023-04-17T09:50:38.892Z,1603.80
2023-04-17T09:53:08.124Z,3574.25
2023-04-17T09:55:36.727Z,3829.80
2023-04-17T09:58:07.758Z,3579.40
2023-04-17T10:00:37.218Z,3776.60
2023-04-17T10:03:08.143Z,3748.60
2023-04-17T10:05:36.100Z,3750.50
2023-04-17T10:08:03.445Z,3793.00
2023-04-17T10:10:31.758Z,3793.20
2023-04-17T10:13:05.525Z,88.60
2023-04-17T10:15:34.119Z,2743.75
2023-04-17T10:18:20.884Z,3781.60
2023-04-17T10:20:49.778Z,3024.40
2023-04-17T10:23:30.713Z,3810.20
2023-04-17T10:26:37.208Z,3761.25
2023-04-17T10:29:04.965Z,3671.75
2023-04-17T10:32:22.559Z,96.60
2023-04-17T10:34:52.300Z,298.20
2023-04-17T10:37:19.792Z,74.20
2023-04-17T10:39:51.566Z,73.00
2023-04-17T10:42:20.009Z,57.00
2023-04-17T10:44:47.987Z,3682.25
2023-04-17T10:47:15.264Z,3800.40
2023-04-17T10:49:54.989Z,3800.20
2023-04-17T10:52:42.108Z,3780.00
2023-04-17T10:55:14.174Z,483.60
2023-04-17T10:57:55.865Z,23.50
2023-04-17T11:00:30.256Z,665.25
2023-04-17T11:02:57.933Z,2554.75
2023-04-17T11:05:26.810Z,3762.80
2023-04-17T11:07:54.102Z,3774.40
2023-04-17T11:10:22.272Z,3768.00
2023-04-17T11:12:51.042Z,3786.80
2023-04-17T11:15:18.003Z,3202.75
2023-04-17T11:17:48.509Z,3779.50
2023-04-17T11:20:20.281Z,3776.40
2023-04-17T11:22:50.117Z,3752.80
2023-04-17T11:25:25.578Z,3693.25
2023-04-17T11:27:56.557Z,3694.00
2023-04-17T11:30:31.748Z,3689.50
2023-04-17T11:32:59.881Z,3679.40
2023-04-17T11:35:34.642Z,3684.20
2023-04-17T11:38:14.313Z,3645.00
2023-04-17T11:40:45.807Z,3693.80
2023-04-17T11:43:13.784Z,3687.40
2023-04-17T11:45:42.472Z,3701.80
2023-04-17T11:48:10.766Z,3700.20
2023-04-17T11:50:38.606Z,3685.80
2023-04-17T11:53:12.900Z,3695.60
2023-04-17T11:55:46.683Z,3693.80
2023-04-17T11:58:14.712Z,3674.60
2023-04-17T12:00:42.142Z,3666.60
2023-04-17T12:03:34.298Z,3665.00
2023-04-17T12:06:03.324Z,3652.80
2023-04-17T12:08:42.362Z,3685.80
2023-04-17T12:11:15.607Z,3653.80
2023-04-17T12:13:44.705Z,3685.80
2023-04-17T12:16:12.075Z,3643.20
2023-04-17T12:18:39.103Z,3687.40
2023-04-17T12:21:07.452Z,3668.20
2023-04-17T12:23:37.395Z,3687.40
2023-04-17T12:26:04.944Z,3689.00
2023-04-17T12:28:32.902Z,3695.60
2023-04-17T12:31:00.582Z,3695.60
2023-04-17T12:33:28.440Z,3682.60
2023-04-17T12:35:55.932Z,3710.00
2023-04-17T12:38:22.779Z,3713.00
2023-04-17T12:40:51.859Z,2956.50
2023-04-17T12:43:18.786Z,3554.60
2023-04-17T12:45:46.791Z,3261.60
2023-04-17T12:48:17.563Z,1841.80
2023-04-17T12:50:45.988Z,3332.50
2023-04-17T12:53:15.152Z,2464.00
2023-04-17T12:55:43.191Z,3369.00
2023-04-17T12:58:14.397Z,3446.60
2023-04-17T13:00:42.044Z,3643.20
2023-04-17T13:03:09.984Z,3203.00
2023-04-17T13:05:36.966Z,2346.80
2023-04-17T13:08:04.596Z,3013.40
2023-04-17T13:10:32.346Z,2513.40
2023-04-17T13:12:59.465Z,3745.00
2023-04-17T13:15:29.112Z,130.50
2023-04-17T13:17:56.197Z,3440.20
2023-04-17T13:20:23.223Z,3744.60
2023-04-17T13:22:50.370Z,87.25
2023-04-17T13:25:18.292Z,2537.25
2023-04-17T13:27:46.774Z,2651.50
2023-04-17T13:30:14.888Z,906.00
2023-04-17T13:32:46.576Z,1934.60
2023-04-17T13:35:14.014Z,3739.60
2023-04-17T13:37:41.757Z,3148.20
2023-04-17T13:40:11.241Z,3760.00
2023-04-17T13:42:38.610Z,3652.40
2023-04-17T13:45:07.263Z,3673.40
2023-04-17T13:47:34.987Z,3374.00
2023-04-17T13:50:06.086Z,3736.40
2023-04-17T13:52:33.741Z,3370.60
2023-04-17T13:55:00.517Z,3741.40
2023-04-17T13:57:28.093Z,3728.60
2023-04-17T13:59:56.050Z,3738.40
2023-04-17T14:02:23.893Z,3736.80
2023-04-17T14:04:51.250Z,3157.20
2023-04-17T14:07:19.865Z,3024.40
2023-04-17T14:09:46.824Z,2801.40
2023-04-17T14:12:14.743Z,3342.40
2023-04-17T14:14:42.486Z,3337.00
2023-04-17T14:17:10.521Z,3487.40
2023-04-17T14:19:37.921Z,3773.20
2023-04-17T14:22:05.711Z,2209.20
2023-04-17T14:24:35.227Z,3115.60
2023-04-17T14:27:02.878Z,3765.00
2023-04-17T14:29:30.467Z,2966.80
2023-04-17T14:31:57.825Z,3157.50
2023-04-17T14:34:25.872Z,3818.50
2023-04-17T14:36:55.185Z,3801.60
2023-04-17T14:39:23.809Z,1408.25
2023-04-17T14:41:53.580Z,3819.20
2023-04-17T14:44:21.613Z,3530.75
2023-04-17T14:46:49.306Z,3802.20
2023-04-17T14:49:17.243Z,3032.40
2023-04-17T14:51:47.020Z,2096.20
2023-04-17T14:54:15.642Z,1320.50
2023-04-17T14:56:44.150Z,1584.75
2023-04-17T14:59:13.486Z,3759.60
2023-04-17T15:01:41.314Z,3402.20
2023-04-17T15:04:10.310Z,3747.80
2023-04-17T15:06:40.694Z,3746.40
2023-04-17T15:09:08.626Z,1794.40
2023-04-17T15:11:36.333Z,2562.75
2023-04-17T15:14:04.579Z,2483.00
2023-04-17T15:16:33.669Z,3744.60
2023-04-17T15:19:01.861Z,1548.20
2023-04-17T15:21:29.479Z,1025.00
2023-04-17T15:23:57.318Z,202.80
2023-04-17T15:26:25.099Z,313.50
2023-04-17T15:28:52.040Z,1989.75
2023-04-17T15:31:20.886Z,1633.50
2023-04-17T15:33:51.245Z,1193.40
2023-04-17T15:36:18.700Z,3489.80
2023-04-17T15:38:45.918Z,2964.00
2023-04-17T15:41:13.577Z,487.00
2023-04-17T15:43:41.304Z,1177.60
2023-04-17T15:46:09.237Z,3075.40
2023-04-17T15:48:36.870Z,1966.00
2023-04-17T15:51:06.578Z,3569.80
2023-04-17T15:53:34.142Z,3469.60
2023-04-17T15:56:01.803Z,2592.60
2023-04-17T15:58:31.941Z,2186.60
2023-04-17T16:00:59.572Z,3500.00
2023-04-17T16:03:26.744Z,3172.75
2023-04-17T16:05:57.341Z,3182.00
2023-04-17T16:08:26.931Z,3175.60
2023-04-17T16:10:53.721Z,3004.50
2023-04-17T16:13:21.038Z,3485.60
2023-04-17T16:15:48.351Z,450.50
2023-04-17T16:18:15.761Z,3503.80
2023-04-17T16:20:44.810Z,3495.40
2023-04-17T16:23:12.618Z,3453.80
2023-04-17T16:25:41.887Z,3481.20
2023-04-17T16:28:09.005Z,3275.20
2023-04-17T16:30:36.181Z,3478.40
2023-04-17T16:33:03.235Z,3502.60
2023-04-17T16:35:31.582Z,3406.00
2023-04-17T16:37:59.384Z,2747.60
2023-04-17T16:40:27.007Z,3481.20
2023-04-17T16:42:56.304Z,3487.00
2023-04-17T16:45:24.454Z,3437.00
2023-04-17T16:47:52.606Z,3168.00
2023-04-17T16:50:21.111Z,3250.60
2023-04-17T16:52:50.283Z,3433.00
2023-04-17T16:55:18.281Z,3126.00
2023-04-17T16:57:45.888Z,3347.40
2023-04-17T17:00:15.855Z,2844.50
2023-04-17T17:02:43.005Z,3285.40
2023-04-17T17:05:11.057Z,2969.60
2023-04-17T17:07:38.556Z,2753.25
2023-04-17T17:10:07.518Z,98.00
2023-04-17T17:12:37.068Z,3073.20
2023-04-17T17:15:06.375Z,2214.25
2023-04-17T17:17:36.113Z,785.80
2023-04-17T17:20:03.684Z,1461.60
2023-04-17T17:22:31.315Z,2604.60
2023-04-17T17:25:00.676Z,1368.80
2023-04-17T17:27:28.625Z,3466.80
2023-04-17T17:29:59.077Z,3473.25
2023-04-17T17:32:27.739Z,3491.20
2023-04-17T17:35:00.276Z,3484.00
2023-04-17T17:37:27.606Z,3491.00
2023-04-17T17:39:55.155Z,3462.50
2023-04-17T17:42:22.926Z,3507.25
2023-04-17T17:44:50.536Z,3441.40
2023-04-17T17:47:18.022Z,3528.80
2023-04-17T17:49:45.723Z,2386.00
2023-04-17T17:52:14.557Z,3539.40
2023-04-17T17:54:41.796Z,3542.00
2023-04-17T17:57:10.917Z,3524.40
2023-04-17T17:59:38.300Z,2160.00
2023-04-17T18:02:06.005Z,3545.00
2023-04-17T18:04:34.207Z,3119.00
2023-04-17T18:07:01.526Z,164.20
2023-04-17T18:09:30.065Z,3029.75
2023-04-17T18:11:57.646Z,812.00
2023-04-17T18:14:25.376Z,129.80
2023-04-17T18:16:53.042Z,48.50
2023-04-17T18:19:20.805Z,49.60
2023-04-17T18:21:48.236Z,55.67
2023-04-17T18:24:15.937Z,32.67
2023-04-17T18:26:44.829Z,55.67
2023-04-17T18:29:12.850Z,80.50
2023-04-17T18:31:41.742Z,46.25
2023-04-17T18:34:09.178Z,65.67
2023-04-17T18:36:36.267Z,61.75
2023-04-17T18:39:03.938Z,74.25
2023-04-17T18:41:31.267Z,68.40
2023-04-17T18:44:00.266Z,85.25
2023-04-17T18:46:28.486Z,37.00
2023-04-17T18:48:56.175Z,34.75
2023-04-17T18:51:24.069Z,36.50
2023-04-17T18:53:53.301Z,35.25
2023-04-17T18:56:20.370Z,32.75
2023-04-17T18:58:48.169Z,40.50
2023-04-17T19:01:18.510Z,41.75
2023-04-17T19:03:46.679Z,34.50
2023-04-17T19:06:13.793Z,34.75
2023-04-17T19:08:41.454Z,35.75
2023-04-17T19:11:08.309Z,51.67
2023-04-17T19:13:35.632Z,40.25
2023-04-17T19:16:03.046Z,31.00
2023-04-17T19:18:33.463Z,34.50
2023-04-17T19:21:00.797Z,32.50
2023-04-17T19:23:28.837Z,24.67
2023-04-17T19:25:56.057Z,31.75
2023-04-17T19:28:24.254Z,30.33
2023-04-17T19:30:51.249Z,30.67
2023-04-17T19:33:19.153Z,31.75
2023-04-17T19:35:49.255Z,25.33
2023-04-17T19:38:17.390Z,30.75
2023-04-17T19:40:47.149Z,30.00
2023-04-17T19:43:15.142Z,28.00
2023-04-17T19:45:42.837Z,30.33
2023-04-17T19:48:11.256Z,24.00
2023-04-17T19:50:40.404Z,28.33
2023-04-17T19:53:10.435Z,3761.60
2023-04-17T19:55:37.613Z,3758.75
2023-04-17T19:58:04.966Z,3752.75
2023-04-17T20:00:32.430Z,19.00
2023-04-17T20:03:00.308Z,3510.50
2023-04-17T20:05:28.275Z,326.75
2023-04-17T20:07:55.831Z,18.25
2023-04-17T20:10:25.460Z,13.00
2023-04-17T20:12:53.060Z,3537.20
2023-04-17T20:15:20.516Z,1839.20
2023-04-17T20:17:47.404Z,770.40
2023-04-17T20:20:14.949Z,2534.00
2023-04-17T20:22:42.692Z,3336.80
2023-04-17T20:25:11.472Z,3790.20
2023-04-17T20:27:41.170Z,3243.50
2023-04-17T20:30:09.728Z,3583.60
2023-04-17T20:32:37.266Z,1934.00
2023-04-17T20:35:05.286Z,3428.80
2023-04-17T20:37:32.542Z,260.20
2023-04-17T20:40:00.924Z,2688.80
2023-04-17T20:42:28.921Z,1242.40
2023-04-17T20:44:57.594Z,1935.60
2023-04-17T20:47:24.920Z,1480.20
2023-04-17T20:49:51.525Z,3876.80
2023-04-17T20:52:18.952Z,3401.20
2023-04-17T20:54:46.656Z,18.67
2023-04-17T20:57:14.297Z,15.75
2023-04-17T20:59:41.933Z,18.25
2023-04-17T21:02:11.266Z,2444.20
2023-04-17T21:04:38.570Z,19.25
2023-04-17T21:07:05.815Z,18.75
2023-04-17T21:09:34.592Z,3083.80
2023-04-17T21:12:01.416Z,1266.80
2023-04-17T21:14:28.652Z,345.00
2023-04-17T21:16:56.264Z,795.60
2023-04-17T21:19:25.836Z,16.00
2023-04-17T21:21:53.951Z,309.25
2023-04-17T21:24:21.614Z,3578.50
2023-04-17T21:26:48.873Z,19.50
2023-04-17T21:29:16.085Z,14.75
2023-04-17T21:31:43.997Z,20.75
2023-04-17T21:34:12.026Z,20.75
2023-04-17T21:36:41.380Z,22.00
2023-04-17T21:39:08.608Z,1168.80
2023-04-17T21:41:36.213Z,3827.60
2023-04-17T21:44:03.639Z,2115.75
2023-04-17T21:46:31.003Z,18.75
2023-04-17T21:48:58.350Z,2237.00
2023-04-17T21:51:25.820Z,24.00
2023-04-17T21:53:54.863Z,21.75
2023-04-17T21:56:21.933Z,27.00
2023-04-17T21:58:49.775Z,21.50
2023-04-17T22:01:17.302Z,21.25
2023-04-17T22:03:44.532Z,22.00
2023-04-17T22:06:11.679Z,24.50
2023-04-17T22:08:38.895Z,18.00
2023-04-17T22:11:07.988Z,17.00
2023-04-17T22:13:35.573Z,24.00
2023-04-17T22:16:02.740Z,1017.20
2023-04-17T22:18:29.967Z,25.00
2023-04-17T22:20:57.672Z,27.25
2023-04-17T22:23:25.130Z,22.75
2023-04-17T22:25:52.803Z,22.25
2023-04-17T22:28:21.822Z,21.50
2023-04-17T22:30:50.640Z,20.50
2023-04-17T22:33:18.122Z,22.25
2023-04-17T22:35:45.305Z,18.50
2023-04-17T22:38:12.738Z,19.25
2023-04-17T22:40:39.949Z,25.00
2023-04-17T22:43:07.180Z,2759.50
2023-04-17T22:45:36.012Z,2303.40
2023-04-17T22:48:03.369Z,2380.60
2023-04-17T22:50:31.008Z,3606.75
2023-04-17T22:52:58.667Z,3927.00
2023-04-17T22:55:26.225Z,3136.40
2023-04-17T22:57:53.669Z,3438.00
2023-04-17T23:00:21.116Z,3938.25
2023-04-17T23:02:49.622Z,3907.40
2023-04-17T23:05:17.124Z,3906.50
2023-04-17T23:07:44.549Z,1779.50
2023-04-17T23:10:11.838Z,29.25
2023-04-17T23:12:39.536Z,3732.75
2023-04-17T23:15:08.280Z,323.50
2023-04-17T23:17:35.695Z,33.75
2023-04-17T23:20:05.443Z,3932.60
2023-04-17T23:22:32.776Z,4000.33
2023-04-17T23:25:01.033Z,3934.00
2023-04-17T23:27:28.413Z,3922.25
2023-04-17T23:29:55.633Z,32.50
2023-04-17T23:32:22.484Z,3095.75
2023-04-17T23:34:50.062Z,2037.00
2023-04-17T23:37:19.097Z,2886.00
2023-04-17T23:39:47.162Z,2171.75
2023-04-17T23:42:15.305Z,359.00
2023-04-17T23:44:42.428Z,38.75
2023-04-17T23:47:10.335Z,2368.00
2023-04-17T23:49:37.636Z,1326.80
2023-04-17T23:52:05.194Z,817.40
2023-04-17T23:54:33.437Z,33.75
2023-04-17T23:57:00.737Z,149.00
2023-04-17T23:59:28.012Z,2590.40
